createdAt,value
2018-09-26T00:01:07.081Z,7.56
2018-09-26T00:04:14.852Z,7.55
2018-09-26T00:07:18.030Z,7.03
2018-09-26T00:10:21.234Z,7.26
2018-09-26T00:13:24.493Z,7.30
2018-09-26T00:16:27.642Z,7.37
2018-09-26T00:19:30.803Z,7.38
2018-09-26T00:22:33.986Z,7.26
2018-09-26T00:25:37.181Z,7.01
2018-09-26T00:28:40.385Z,6.97
2018-09-26T00:31:43.596Z,6.69
2018-09-26T00:34:46.855Z,6.97
2018-09-26T00:37:51.524Z,6.91
2018-09-26T00:40:54.693Z,7.20
2018-09-26T00:43:57.888Z,6.77
2018-09-26T00:47:01.219Z,6.67
2018-09-26T00:50:04.379Z,6.77
2018-09-26T00:53:07.563Z,7.04
2018-09-26T00:56:10.752Z,6.96
2018-09-26T00:59:13.961Z,6.78
2018-09-26T01:02:17.141Z,6.05
2018-09-26T01:05:20.386Z,6.26
2018-09-26T01:08:23.512Z,6.10
2018-09-26T01:11:27.823Z,6.26
2018-09-26T01:14:32.082Z,6.35
2018-09-26T01:17:35.198Z,6.42
2018-09-26T01:20:40.706Z,6.58
2018-09-26T01:23:43.937Z,6.52
2018-09-26T01:26:47.084Z,6.70
2018-09-26T01:29:50.285Z,6.77
2018-09-26T01:32:53.559Z,6.81
2018-09-26T01:35:56.814Z,6.43
2018-09-26T01:39:00.051Z,6.57
2018-09-26T01:42:03.314Z,6.20
2018-09-26T01:45:06.601Z,6.27
2018-09-26T01:48:09.893Z,6.57
2018-09-26T01:51:13.125Z,6.52
2018-09-26T01:54:16.318Z,6.93
2018-09-26T01:57:19.582Z,6.67
2018-09-26T02:00:22.786Z,6.36
2018-09-26T02:03:26.062Z,6.71
2018-09-26T02:06:29.275Z,6.37
2018-09-26T02:09:32.588Z,6.33
2018-09-26T02:12:35.877Z,6.29
2018-09-26T02:15:39.179Z,5.68
2018-09-26T02:18:42.430Z,6.04
2018-09-26T02:21:45.633Z,5.84
2018-09-26T02:24:48.827Z,6.25
2018-09-26T02:27:52.204Z,6.23
2018-09-26T02:30:55.578Z,6.56
2018-09-26T02:33:58.862Z,6.49
2018-09-26T02:37:02.087Z,6.43
2018-09-26T02:40:05.381Z,6.58
2018-09-26T02:43:08.593Z,6.61
2018-09-26T02:46:11.781Z,6.83
2018-09-26T02:49:14.930Z,6.17
2018-09-26T02:52:18.211Z,5.40
2018-09-26T02:55:21.347Z,6.28
2018-09-26T02:58:24.526Z,6.57
2018-09-26T03:01:27.851Z,6.50
2018-09-26T03:04:31.143Z,6.41
2018-09-26T03:07:34.306Z,6.73
2018-09-26T03:10:37.545Z,6.56
2018-09-26T03:13:40.729Z,6.23
2018-09-26T03:16:43.893Z,6.77
2018-09-26T03:19:47.060Z,6.03
2018-09-26T03:22:50.307Z,5.22
2018-09-26T03:25:53.504Z,5.09
2018-09-26T03:28:56.783Z,5.18
2018-09-26T03:31:59.984Z,5.23
2018-09-26T03:35:03.297Z,5.04
2018-09-26T03:38:06.546Z,5.02
2018-09-26T03:41:09.697Z,5.09
2018-09-26T03:44:12.859Z,5.29
2018-09-26T03:47:16.054Z,5.39
2018-09-26T03:50:19.276Z,5.94
2018-09-26T03:53:22.462Z,6.01
2018-09-26T03:56:25.616Z,6.28
2018-09-26T03:59:28.761Z,5.60
2018-09-26T04:02:31.919Z,5.65
2018-09-26T04:05:35.227Z,5.86
2018-09-26T04:08:38.613Z,5.41
2018-09-26T04:11:42.173Z,5.12
2018-09-26T04:14:45.503Z,4.80
2018-09-26T04:17:48.728Z,5.28
2018-09-26T04:20:52.425Z,5.56
2018-09-26T04:23:55.625Z,5.56
2018-09-26T04:26:59.688Z,5.78
2018-09-26T04:30:02.789Z,5.88
2018-09-26T04:33:06.403Z,5.85
2018-09-26T04:36:09.593Z,5.10
2018-09-26T04:39:13.026Z,4.59
2018-09-26T04:42:16.275Z,5.03
2018-09-26T04:45:19.458Z,5.04
2018-09-26T04:48:22.757Z,5.23
2018-09-26T04:51:26.042Z,5.38
2018-09-26T04:54:29.195Z,5.60
2018-09-26T04:57:32.430Z,5.87
2018-09-26T05:00:35.686Z,5.78
2018-09-26T05:03:39.053Z,5.69
2018-09-26T05:06:42.523Z,5.63
2018-09-26T05:09:45.797Z,5.94
2018-09-26T05:12:49.029Z,5.77
2018-09-26T05:15:52.410Z,5.64
2018-09-26T05:18:55.699Z,5.50
2018-09-26T05:21:58.919Z,5.85
2018-09-26T05:25:02.192Z,5.93
2018-09-26T05:28:05.498Z,5.06
2018-09-26T05:31:08.933Z,4.91
2018-09-26T05:34:12.181Z,5.28
2018-09-26T05:37:15.766Z,5.44
2018-09-26T05:40:18.968Z,5.70
2018-09-26T05:43:22.268Z,6.24
2018-09-26T05:46:25.437Z,6.27
2018-09-26T05:49:28.623Z,6.23
2018-09-26T05:52:31.871Z,6.25
2018-09-26T05:55:35.136Z,7.03
2018-09-26T05:58:38.436Z,6.86
2018-09-26T06:01:41.850Z,6.81
2018-09-26T06:04:45.164Z,6.45
2018-09-26T06:07:48.457Z,6.81
2018-09-26T06:10:52.766Z,6.74
2018-09-26T06:13:56.114Z,6.68
2018-09-26T06:16:59.359Z,6.18
2018-09-26T06:20:02.653Z,5.67
2018-09-26T06:23:05.909Z,5.52
2018-09-26T06:26:09.044Z,4.75
2018-09-26T06:29:12.281Z,4.72
2018-09-26T06:32:15.467Z,4.83
2018-09-26T06:35:18.634Z,5.49
2018-09-26T06:38:21.843Z,5.88
2018-09-26T06:41:24.930Z,6.35
2018-09-26T06:44:28.218Z,6.42
2018-09-26T06:47:31.421Z,6.88
2018-09-26T06:50:34.497Z,7.47
2018-09-26T06:53:37.599Z,8.19
2018-09-26T06:56:40.763Z,8.49
2018-09-26T06:59:43.881Z,8.62
2018-09-26T07:02:47.046Z,8.44
2018-09-26T07:05:50.256Z,8.00
2018-09-26T07:08:53.391Z,8.00
2018-09-26T07:11:56.469Z,6.74
2018-09-26T07:14:59.745Z,6.65
2018-09-26T07:18:04.248Z,7.79
2018-09-26T07:21:07.474Z,8.41
2018-09-26T07:24:10.577Z,8.97
2018-09-26T07:27:13.810Z,8.84
2018-09-26T07:30:17.068Z,8.78
2018-09-26T07:33:20.235Z,9.53
2018-09-26T07:36:23.463Z,9.45
2018-09-26T07:39:26.717Z,9.62
2018-09-26T07:42:29.994Z,10.14
2018-09-26T07:45:34.564Z,10.71
2018-09-26T07:48:37.784Z,11.05
2018-09-26T07:51:41.201Z,10.95
2018-09-26T07:54:44.855Z,10.57
2018-09-26T07:57:48.464Z,10.53
2018-09-26T08:00:51.968Z,9.19
2018-09-26T08:03:55.404Z,9.82
2018-09-26T08:06:58.929Z,10.45
2018-09-26T08:10:02.357Z,9.93
2018-09-26T08:13:05.605Z,10.03
2018-09-26T08:16:09.536Z,11.08
2018-09-26T08:19:12.934Z,11.85
2018-09-26T08:22:16.501Z,11.65
2018-09-26T08:25:19.793Z,11.83
2018-09-26T08:28:23.128Z,11.58
2018-09-26T08:31:26.470Z,9.92
2018-09-26T08:34:29.734Z,10.30
2018-09-26T08:37:33.027Z,11.47
2018-09-26T08:40:36.290Z,12.10
2018-09-26T08:43:39.612Z,12.63
2018-09-26T08:46:42.754Z,13.26
2018-09-26T08:49:45.865Z,13.70
2018-09-26T08:52:49.063Z,13.41
2018-09-26T08:55:52.332Z,14.24
2018-09-26T08:58:55.513Z,12.95
2018-09-26T09:01:58.682Z,12.67
2018-09-26T09:05:01.911Z,12.14
2018-09-26T09:08:05.113Z,12.40
2018-09-26T09:11:08.303Z,11.79
2018-09-26T09:14:11.514Z,12.11
2018-09-26T09:17:14.667Z,11.54
2018-09-26T09:20:17.843Z,12.16
2018-09-26T09:23:20.977Z,12.78
2018-09-26T09:26:24.272Z,13.21
2018-09-26T09:29:27.437Z,13.11
2018-09-26T09:32:30.658Z,12.91
2018-09-26T09:35:33.830Z,13.65
2018-09-26T09:38:37.105Z,13.33
2018-09-26T09:41:40.317Z,13.90
2018-09-26T09:44:43.721Z,13.72
2018-09-26T09:47:46.977Z,13.43
2018-09-26T09:50:50.248Z,13.96
2018-09-26T09:53:53.476Z,13.26
2018-09-26T09:56:56.727Z,13.96
2018-09-26T09:59:59.949Z,13.88
2018-09-26T10:03:03.383Z,13.97
2018-09-26T10:06:06.642Z,14.29
2018-09-26T10:09:09.873Z,14.90
2018-09-26T10:12:13.139Z,15.14
2018-09-26T10:15:16.426Z,14.77
2018-09-26T10:18:19.590Z,14.14
2018-09-26T10:21:22.770Z,14.83
2018-09-26T10:24:26.066Z,15.09
2018-09-26T10:27:29.947Z,14.31
2018-09-26T10:30:33.344Z,15.88
2018-09-26T10:33:37.456Z,15.85
2018-09-26T10:36:41.217Z,16.97
2018-09-26T10:39:44.412Z,15.76
2018-09-26T10:42:47.687Z,16.16
2018-09-26T10:45:50.862Z,16.61
2018-09-26T10:48:54.090Z,16.25
2018-09-26T10:51:57.239Z,15.53
2018-09-26T10:55:00.486Z,15.29
2018-09-26T10:58:03.637Z,15.96
2018-09-26T11:01:07.226Z,15.72
2018-09-26T11:04:10.481Z,16.03
2018-09-26T11:07:13.583Z,16.14
2018-09-26T11:10:16.763Z,15.47
2018-09-26T11:13:19.953Z,15.35
2018-09-26T11:16:23.939Z,15.61
2018-09-26T11:19:27.126Z,15.09
2018-09-26T11:22:30.330Z,15.42
2018-09-26T11:25:33.473Z,15.51
2018-09-26T11:28:36.624Z,15.70
2018-09-26T11:31:39.748Z,15.80
2018-09-26T11:34:43.045Z,15.07
2018-09-26T11:37:46.397Z,15.63
2018-09-26T11:40:49.623Z,15.83
2018-09-26T11:43:53.105Z,16.85
2018-09-26T11:46:56.311Z,16.66
2018-09-26T11:49:59.541Z,16.05
2018-09-26T11:53:02.861Z,16.36
2018-09-26T11:56:06.296Z,17.75
2018-09-26T11:59:09.534Z,17.95
2018-09-26T12:02:12.907Z,17.49
2018-09-26T12:05:16.114Z,17.55
2018-09-26T12:08:19.609Z,17.49
2018-09-26T12:11:22.699Z,17.55
2018-09-26T12:14:26.122Z,16.99
2018-09-26T12:17:29.355Z,17.33
2018-09-26T12:20:32.578Z,17.24
2018-09-26T12:23:35.915Z,17.26
2018-09-26T12:26:39.212Z,16.69
2018-09-26T12:29:42.385Z,16.86
2018-09-26T12:32:45.639Z,17.66
2018-09-26T12:35:48.898Z,17.45
2018-09-26T12:38:52.160Z,17.75
2018-09-26T12:41:55.438Z,18.29
2018-09-26T12:44:58.727Z,17.92
2018-09-26T12:48:01.961Z,18.92
2018-09-26T12:51:05.141Z,18.92
2018-09-26T12:57:22.687Z,17.99
2018-09-26T13:00:26.484Z,17.88
2018-09-26T13:03:29.664Z,17.09
2018-09-26T13:06:33.042Z,17.34
2018-09-26T13:09:36.357Z,17.34
2018-09-26T13:12:39.585Z,17.78
2018-09-26T13:15:42.851Z,18.05
2018-09-26T13:18:46.127Z,18.94
2018-09-26T13:21:49.325Z,19.60
2018-09-26T13:24:52.600Z,19.87
2018-09-26T13:27:55.838Z,18.33
2018-09-26T13:30:59.071Z,17.59
2018-09-26T13:34:02.442Z,18.28
2018-09-26T13:37:05.678Z,17.22
2018-09-26T13:40:09.028Z,17.44
2018-09-26T13:43:12.335Z,18.06
2018-09-26T13:46:15.645Z,18.15
2018-09-26T13:49:18.812Z,17.74
2018-09-26T13:52:22.048Z,17.94
2018-09-26T13:55:25.401Z,18.14
2018-09-26T13:58:28.623Z,19.62
2018-09-26T14:01:32.086Z,19.45
2018-09-26T14:04:35.966Z,18.35
2018-09-26T14:07:39.163Z,19.39
2018-09-26T14:10:42.409Z,19.83
2018-09-26T14:13:45.614Z,19.34
2018-09-26T14:16:48.921Z,19.47
2018-09-26T14:20:15.286Z,18.74
2018-09-26T14:23:24.694Z,18.45
2018-09-26T14:26:28.175Z,19.25
2018-09-26T14:29:31.588Z,19.73
2018-09-26T14:32:35.005Z,21.12
2018-09-26T14:35:38.422Z,20.56
2018-09-26T14:38:41.894Z,21.85
2018-09-26T14:41:45.326Z,21.51
2018-09-26T14:44:48.762Z,22.12
2018-09-26T14:47:52.159Z,22.71
2018-09-26T14:50:55.555Z,23.03
2018-09-26T14:53:59.025Z,22.72
2018-09-26T14:57:02.390Z,23.10
2018-09-26T15:00:07.141Z,22.44
2018-09-26T15:03:10.583Z,23.38
2018-09-26T15:06:14.058Z,23.37
2018-09-26T15:09:17.574Z,23.44
2018-09-26T15:12:20.972Z,22.30
2018-09-26T15:15:24.365Z,23.46
2018-09-26T15:18:27.756Z,23.90
2018-09-26T15:21:31.019Z,22.56
2018-09-26T15:24:34.387Z,22.89
2018-09-26T15:27:37.821Z,23.67
2018-09-26T15:30:41.178Z,22.94
2018-09-26T15:33:44.693Z,20.72
2018-09-26T15:36:48.055Z,21.57
2018-09-26T15:39:51.461Z,22.81
2018-09-26T15:42:54.885Z,23.54
2018-09-26T15:45:58.209Z,22.75
2018-09-26T15:49:01.550Z,23.10
2018-09-26T15:52:05.036Z,21.74
2018-09-26T15:55:08.598Z,21.42
2018-09-26T15:58:11.953Z,21.46
2018-09-26T16:01:15.290Z,20.22
2018-09-26T16:04:25.689Z,19.68
2018-09-26T16:07:28.874Z,19.48
2018-09-26T16:10:32.108Z,20.19
2018-09-26T16:13:35.446Z,19.83
2018-09-26T16:16:38.773Z,19.47
2018-09-26T16:19:42.115Z,19.92
2018-09-26T16:22:45.396Z,19.85
2018-09-26T16:25:48.596Z,20.55
2018-09-26T16:28:51.735Z,20.92
2018-09-26T16:31:54.896Z,20.80
2018-09-26T16:34:58.078Z,20.85
2018-09-26T16:38:01.281Z,21.31
2018-09-26T16:41:04.803Z,21.81
2018-09-26T16:44:07.994Z,22.27
2018-09-26T16:47:11.207Z,22.11
2018-09-26T16:50:14.593Z,21.59
2018-09-26T16:53:17.972Z,21.60
2018-09-26T16:56:21.287Z,21.21
2018-09-26T16:59:24.381Z,20.78
2018-09-26T17:02:28.062Z,19.82
2018-09-26T17:05:31.437Z,19.97
2018-09-26T17:08:34.573Z,18.75
2018-09-26T17:11:37.883Z,18.30
2018-09-26T17:14:42.294Z,18.15
2018-09-26T17:17:45.614Z,17.57
2018-09-26T17:20:49.004Z,17.48
2018-09-26T17:23:52.367Z,17.06
2018-09-26T17:26:55.671Z,16.63
2018-09-26T17:29:59.015Z,16.39
2018-09-26T17:33:02.329Z,16.12
2018-09-26T17:36:05.883Z,15.81
2018-09-26T17:39:09.583Z,15.54
2018-09-26T17:42:13.060Z,15.29
2018-09-26T17:45:16.308Z,15.20
2018-09-26T17:48:19.652Z,15.08
2018-09-26T17:51:23.036Z,15.13
2018-09-26T17:54:26.258Z,15.41
2018-09-26T17:57:29.611Z,15.04
2018-09-26T18:00:32.870Z,14.61
2018-09-26T18:03:36.420Z,14.14
2018-09-26T18:06:39.797Z,14.60
2018-09-26T18:09:42.982Z,14.35
2018-09-26T18:12:46.360Z,14.33
2018-09-26T18:15:49.558Z,14.50
2018-09-26T18:18:52.841Z,13.78
2018-09-26T18:21:56.103Z,14.03
2018-09-26T18:24:59.445Z,14.06
2018-09-26T18:28:02.850Z,13.88
2018-09-26T18:31:06.209Z,13.31
2018-09-26T18:34:09.550Z,12.92
2018-09-26T18:37:12.844Z,13.05
2018-09-26T18:40:16.079Z,12.93
2018-09-26T18:43:19.451Z,13.38
2018-09-26T18:46:22.871Z,13.36
2018-09-26T18:49:26.198Z,13.54
2018-09-26T18:52:29.611Z,13.50
2018-09-26T18:55:32.931Z,13.43
2018-09-26T18:58:36.249Z,13.42
2018-09-26T19:01:39.459Z,13.26
2018-09-26T19:04:43.049Z,13.14
2018-09-26T19:07:46.934Z,13.06
2018-09-26T19:10:50.275Z,13.06
2018-09-26T19:13:53.701Z,12.88
2018-09-26T19:16:57.065Z,13.00
2018-09-26T19:20:00.538Z,12.63
2018-09-26T19:23:04.076Z,12.18
2018-09-26T19:26:07.334Z,12.30
2018-09-26T19:29:10.649Z,12.36
2018-09-26T19:32:14.008Z,12.55
2018-09-26T19:35:17.311Z,12.63
2018-09-26T19:38:20.580Z,12.57
2018-09-26T19:41:24.000Z,12.62
2018-09-26T19:44:27.341Z,12.38
2018-09-26T19:47:30.632Z,12.16
2018-09-26T19:50:33.921Z,11.93
2018-09-26T19:53:37.755Z,12.23
2018-09-26T19:56:41.173Z,11.47
2018-09-26T19:59:44.456Z,11.25
2018-09-26T20:02:47.844Z,11.21
2018-09-26T20:05:51.213Z,10.98
2018-09-26T20:08:54.557Z,10.76
2018-09-26T20:11:57.891Z,11.11
2018-09-26T20:15:01.243Z,11.10
2018-09-26T20:18:04.630Z,11.05
2018-09-26T20:21:07.996Z,11.14
2018-09-26T20:24:11.489Z,10.98
2018-09-26T20:27:14.957Z,11.00
2018-09-26T20:30:18.393Z,11.04
2018-09-26T20:33:21.949Z,10.64
2018-09-26T20:36:25.393Z,10.58
2018-09-26T20:39:28.895Z,10.80
2018-09-26T20:42:32.218Z,10.88
2018-09-26T20:45:35.441Z,10.52
2018-09-26T20:48:38.730Z,10.60
2018-09-26T20:51:41.973Z,10.46
2018-09-26T20:54:45.288Z,10.22
2018-09-26T20:57:48.468Z,10.31
2018-09-26T21:00:51.650Z,10.19
2018-09-26T21:03:54.905Z,10.36
2018-09-26T21:06:58.145Z,10.37
2018-09-26T21:10:01.377Z,10.53
2018-09-26T21:13:04.684Z,10.35
2018-09-26T21:16:07.987Z,10.45
2018-09-26T21:19:11.571Z,10.26
2018-09-26T21:22:14.813Z,10.40
2018-09-26T21:25:18.050Z,10.19
2018-09-26T21:28:21.379Z,10.09
2018-09-26T21:31:24.643Z,10.19
2018-09-26T21:34:27.962Z,10.23
2018-09-26T21:37:31.222Z,9.99
2018-09-26T21:40:34.419Z,10.22
2018-09-26T21:43:37.651Z,10.25
2018-09-26T21:46:41.066Z,9.72
2018-09-26T21:49:44.291Z,9.60
2018-09-26T21:52:47.488Z,9.87
2018-09-26T21:55:50.775Z,9.89
2018-09-26T21:58:53.995Z,10.03
2018-09-26T22:01:57.160Z,10.04
2018-09-26T22:05:00.361Z,9.87
2018-09-26T22:08:03.621Z,9.66
2018-09-26T22:11:06.855Z,9.93
2018-09-26T22:14:10.121Z,9.98
2018-09-26T22:17:13.333Z,9.83
2018-09-26T22:20:16.610Z,9.95
2018-09-26T22:23:19.867Z,9.69
2018-09-26T22:26:23.187Z,9.83
2018-09-26T22:29:26.339Z,9.51
2018-09-26T22:32:29.499Z,9.23
2018-09-26T22:35:32.657Z,9.00
2018-09-26T22:38:35.884Z,9.12
2018-09-26T22:41:39.212Z,9.09
2018-09-26T22:44:42.323Z,9.36
2018-09-26T22:47:45.509Z,9.50
2018-09-26T22:50:48.650Z,9.52
2018-09-26T22:53:51.809Z,9.47
2018-09-26T22:56:55.013Z,9.44
2018-09-26T22:59:58.229Z,9.44
2018-09-26T23:03:01.370Z,9.58
2018-09-26T23:06:04.642Z,9.46
2018-09-26T23:09:09.942Z,9.47
2018-09-26T23:12:13.180Z,9.66
2018-09-26T23:15:16.368Z,9.76
2018-09-26T23:18:19.702Z,9.53
2018-09-26T23:21:22.964Z,9.90
2018-09-26T23:24:26.146Z,9.42
2018-09-26T23:27:29.444Z,9.63
2018-09-26T23:30:32.574Z,9.57
2018-09-26T23:33:35.761Z,9.77
2018-09-26T23:36:38.905Z,9.59
2018-09-26T23:39:42.091Z,9.15
2018-09-26T23:42:45.298Z,9.37
2018-09-26T23:45:48.513Z,9.40
2018-09-26T23:48:51.722Z,9.17
2018-09-26T23:51:54.881Z,8.75
2018-09-26T23:54:58.087Z,8.99
2018-09-26T23:58:01.266Z,9.44
